sensor_id;sensor_type;location;lat;lon;timestamp;P1;durP1;ratioP1;P2;durP2;ratioP2
15806;SDS011;8005;51.368;6.140;2022-10-04T00:01:17;11.75;;;5.43;;
15806;SDS011;8005;51.368;6.140;2022-10-04T00:02:52;13.20;;;4.95;;
15806;SDS011;8005;51.368;6.140;2022-10-04T00:04:30;17.63;;;6.63;;
15806;SDS011;8005;51.368;6.140;2022-10-04T00:06:04;10.15;;;5.57;;
15806;SDS011;8005;51.368;6.140;2022-10-04T00:07:46;12.10;;;5.13;;
15806;SDS011;8005;51.368;6.140;2022-10-04T00:09:41;12.25;;;5.78;;
15806;SDS011;8005;51.368;6.140;2022-10-04T00:11:25;12.65;;;5.65;;
15806;SDS011;8005;51.368;6.140;2022-10-04T00:13:13;9.38;;;5.43;;
15806;SDS011;8005;51.368;6.140;2022-10-04T00:15:04;10.68;;;5.40;;
15806;SDS011;8005;51.368;6.140;2022-10-04T00:16:48;11.50;;;5.13;;
15806;SDS011;8005;51.368;6.140;2022-10-04T00:19:57;11.02;;;5.70;;
15806;SDS011;8005;51.368;6.140;2022-10-04T00:23:25;12.30;;;5.80;;
15806;SDS011;8005;51.368;6.140;2022-10-04T00:28:27;10.15;;;5.20;;
15806;SDS011;8005;51.368;6.140;2022-10-04T00:31:53;11.05;;;5.07;;
15806;SDS011;8005;51.368;6.140;2022-10-04T00:33:46;13.57;;;6.05;;
15806;SDS011;8005;51.368;6.140;2022-10-04T00:37:00;11.68;;;5.38;;
15806;SDS011;8005;51.368;6.140;2022-10-04T00:38:40;13.13;;;5.13;;
15806;SDS011;8005;51.368;6.140;2022-10-04T00:40:16;11.52;;;5.18;;
15806;SDS011;8005;51.368;6.140;2022-10-04T00:42:34;12.38;;;5.88;;
15806;SDS011;8005;51.368;6.140;2022-10-04T00:43:54;9.20;;;5.75;;
15806;SDS011;8005;51.368;6.140;2022-10-04T00:49:34;14.52;;;6.07;;
15806;SDS011;8005;51.368;6.140;2022-10-04T00:52:56;9.05;;;4.97;;
15806;SDS011;8005;51.368;6.140;2022-10-04T00:54:38;10.65;;;4.88;;
15806;SDS011;8005;51.368;6.140;2022-10-04T00:56:38;10.43;;;4.82;;
15806;SDS011;8005;51.368;6.140;2022-10-04T00:58:17;8.98;;;4.60;;
15806;SDS011;8005;51.368;6.140;2022-10-04T00:59:59;8.88;;;5.13;;
15806;SDS011;8005;51.368;6.140;2022-10-04T01:01:41;9.18;;;4.90;;
15806;SDS011;8005;51.368;6.140;2022-10-04T01:07:38;14.35;;;4.97;;
15806;SDS011;8005;51.368;6.140;2022-10-04T01:09:19;16.25;;;4.78;;
15806;SDS011;8005;51.368;6.140;2022-10-04T01:11:06;9.95;;;5.22;;
15806;SDS011;8005;51.368;6.140;2022-10-04T01:16:34;11.18;;;5.25;;
15806;SDS011;8005;51.368;6.140;2022-10-04T01:19:49;9.32;;;4.70;;
15806;SDS011;8005;51.368;6.140;2022-10-04T01:21:25;9.27;;;5.63;;
15806;SDS011;8005;51.368;6.140;2022-10-04T01:23:00;9.30;;;5.47;;
15806;SDS011;8005;51.368;6.140;2022-10-04T01:24:34;10.10;;;4.88;;
15806;SDS011;8005;51.368;6.140;2022-10-04T01:27:59;11.40;;;5.05;;
15806;SDS011;8005;51.368;6.140;2022-10-04T01:29:39;12.90;;;5.75;;
15806;SDS011;8005;51.368;6.140;2022-10-04T01:31:18;11.90;;;4.95;;
15806;SDS011;8005;51.368;6.140;2022-10-04T01:32:57;11.52;;;5.57;;
15806;SDS011;8005;51.368;6.140;2022-10-04T01:34:31;12.38;;;5.38;;
15806;SDS011;8005;51.368;6.140;2022-10-04T01:36:14;8.18;;;4.97;;
15806;SDS011;8005;51.368;6.140;2022-10-04T01:37:54;7.50;;;4.88;;
15806;SDS011;8005;51.368;6.140;2022-10-04T01:39:27;9.10;;;5.28;;
15806;SDS011;8005;51.368;6.140;2022-10-04T01:41:05;12.27;;;5.80;;
15806;SDS011;8005;51.368;6.140;2022-10-04T01:42:54;10.52;;;4.88;;
15806;SDS011;8005;51.368;6.140;2022-10-04T01:44:44;8.70;;;5.00;;
15806;SDS011;8005;51.368;6.140;2022-10-04T01:46:21;10.88;;;5.03;;
15806;SDS011;8005;51.368;6.140;2022-10-04T01:48:00;10.77;;;5.13;;
15806;SDS011;8005;51.368;6.140;2022-10-04T01:49:37;11.77;;;4.88;;
15806;SDS011;8005;51.368;6.140;2022-10-04T01:52:42;9.18;;;4.90;;
15806;SDS011;8005;51.368;6.140;2022-10-04T01:54:20;11.50;;;5.22;;
15806;SDS011;8005;51.368;6.140;2022-10-04T01:56:04;13.82;;;4.70;;
15806;SDS011;8005;51.368;6.140;2022-10-04T01:57:41;8.48;;;5.13;;
15806;SDS011;8005;51.368;6.140;2022-10-04T01:59:26;10.60;;;5.20;;
15806;SDS011;8005;51.368;6.140;2022-10-04T02:03:03;10.07;;;5.38;;
15806;SDS011;8005;51.368;6.140;2022-10-04T02:04:50;11.93;;;4.47;;
15806;SDS011;8005;51.368;6.140;2022-10-04T02:06:34;9.07;;;4.80;;
15806;SDS011;8005;51.368;6.140;2022-10-04T02:08:11;11.45;;;5.25;;
15806;SDS011;8005;51.368;6.140;2022-10-04T02:09:47;10.15;;;5.13;;
15806;SDS011;8005;51.368;6.140;2022-10-04T02:11:21;12.45;;;5.55;;
15806;SDS011;8005;51.368;6.140;2022-10-04T02:12:55;13.43;;;5.60;;
15806;SDS011;8005;51.368;6.140;2022-10-04T02:14:31;14.70;;;5.93;;
15806;SDS011;8005;51.368;6.140;2022-10-04T02:16:26;14.60;;;5.80;;
15806;SDS011;8005;51.368;6.140;2022-10-04T02:17:58;12.25;;;5.25;;
15806;SDS011;8005;51.368;6.140;2022-10-04T02:19:37;11.30;;;5.57;;
15806;SDS011;8005;51.368;6.140;2022-10-04T02:21:41;13.82;;;5.65;;
15806;SDS011;8005;51.368;6.140;2022-10-04T02:23:15;12.25;;;5.32;;
15806;SDS011;8005;51.368;6.140;2022-10-04T02:24:49;12.20;;;4.82;;
15806;SDS011;8005;51.368;6.140;2022-10-04T02:26:31;10.43;;;5.70;;
15806;SDS011;8005;51.368;6.140;2022-10-04T02:28:09;12.98;;;6.00;;
15806;SDS011;8005;51.368;6.140;2022-10-04T02:29:48;13.88;;;5.35;;
15806;SDS011;8005;51.368;6.140;2022-10-04T02:31:27;16.67;;;7.00;;
15806;SDS011;8005;51.368;6.140;2022-10-04T02:33:17;9.80;;;5.90;;
15806;SDS011;8005;51.368;6.140;2022-10-04T02:34:58;15.90;;;6.13;;
15806;SDS011;8005;51.368;6.140;2022-10-04T02:36:30;16.00;;;6.23;;
15806;SDS011;8005;51.368;6.140;2022-10-04T02:38:16;10.07;;;5.38;;
15806;SDS011;8005;51.368;6.140;2022-10-04T02:39:52;9.57;;;5.00;;
15806;SDS011;8005;51.368;6.140;2022-10-04T02:41:32;15.68;;;6.05;;
15806;SDS011;8005;51.368;6.140;2022-10-04T02:43:28;14.90;;;5.90;;
15806;SDS011;8005;51.368;6.140;2022-10-04T02:45:01;10.07;;;5.38;;
15806;SDS011;8005;51.368;6.140;2022-10-04T02:46:49;13.68;;;6.28;;
15806;SDS011;8005;51.368;6.140;2022-10-04T02:48:39;11.85;;;5.82;;
15806;SDS011;8005;51.368;6.140;2022-10-04T02:50:19;9.65;;;5.57;;
15806;SDS011;8005;51.368;6.140;2022-10-04T02:52:11;11.82;;;5.45;;
15806;SDS011;8005;51.368;6.140;2022-10-04T02:53:55;10.38;;;6.18;;
15806;SDS011;8005;51.368;6.140;2022-10-04T02:55:34;12.48;;;5.95;;
15806;SDS011;8005;51.368;6.140;2022-10-04T02:57:12;11.65;;;5.60;;
15806;SDS011;8005;51.368;6.140;2022-10-04T02:58:59;9.23;;;5.45;;
15806;SDS011;8005;51.368;6.140;2022-10-04T03:00:34;12.30;;;5.03;;
15806;SDS011;8005;51.368;6.140;2022-10-04T03:02:26;10.65;;;5.70;;
15806;SDS011;8005;51.368;6.140;2022-10-04T03:04:01;11.40;;;5.47;;
15806;SDS011;8005;51.368;6.140;2022-10-04T03:05:36;16.35;;;5.88;;
15806;SDS011;8005;51.368;6.140;2022-10-04T03:07:10;11.60;;;5.28;;
15806;SDS011;8005;51.368;6.140;2022-10-04T03:08:52;15.60;;;5.85;;
15806;SDS011;8005;51.368;6.140;2022-10-04T03:10:35;12.13;;;5.97;;
15806;SDS011;8005;51.368;6.140;2022-10-04T03:12:08;14.00;;;5.55;;
15806;SDS011;8005;51.368;6.140;2022-10-04T03:13:44;15.63;;;6.00;;
15806;SDS011;8005;51.368;6.140;2022-10-04T03:15:19;9.65;;;6.03;;
15806;SDS011;8005;51.368;6.140;2022-10-04T03:16:56;13.52;;;5.35;;
15806;SDS011;8005;51.368;6.140;2022-10-04T03:18:37;11.20;;;5.45;;
15806;SDS011;8005;51.368;6.140;2022-10-04T03:20:10;14.63;;;5.60;;
15806;SDS011;8005;51.368;6.140;2022-10-04T03:21:58;10.73;;;5.38;;
15806;SDS011;8005;51.368;6.140;2022-10-04T03:23:49;11.30;;;5.50;;
15806;SDS011;8005;51.368;6.140;2022-10-04T03:25:40;11.88;;;5.80;;
15806;SDS011;8005;51.368;6.140;2022-10-04T03:27:24;17.25;;;6.65;;
15806;SDS011;8005;51.368;6.140;2022-10-04T03:29:07;8.60;;;5.55;;
15806;SDS011;8005;51.368;6.140;2022-10-04T03:30:44;9.52;;;5.40;;
15806;SDS011;8005;51.368;6.140;2022-10-04T03:32:22;13.10;;;5.35;;
15806;SDS011;8005;51.368;6.140;2022-10-04T03:33:56;14.90;;;5.88;;
15806;SDS011;8005;51.368;6.140;2022-10-04T03:35:31;12.85;;;5.53;;
15806;SDS011;8005;51.368;6.140;2022-10-04T03:37:09;11.45;;;5.25;;
15806;SDS011;8005;51.368;6.140;2022-10-04T03:38:46;11.35;;;5.45;;
15806;SDS011;8005;51.368;6.140;2022-10-04T03:40:23;14.32;;;6.00;;
15806;SDS011;8005;51.368;6.140;2022-10-04T03:42:02;8.88;;;5.05;;
15806;SDS011;8005;51.368;6.140;2022-10-04T03:43:36;9.35;;;5.78;;
15806;SDS011;8005;51.368;6.140;2022-10-04T03:45:13;11.57;;;5.40;;
15806;SDS011;8005;51.368;6.140;2022-10-04T03:46:48;12.35;;;5.18;;
15806;SDS011;8005;51.368;6.140;2022-10-04T03:48:39;11.07;;;5.22;;
15806;SDS011;8005;51.368;6.140;2022-10-04T03:51:48;13.73;;;6.18;;
15806;SDS011;8005;51.368;6.140;2022-10-04T03:53:37;10.32;;;5.05;;
15806;SDS011;8005;51.368;6.140;2022-10-04T03:55:15;10.60;;;5.28;;
15806;SDS011;8005;51.368;6.140;2022-10-04T03:56:48;11.55;;;5.82;;
15806;SDS011;8005;51.368;6.140;2022-10-04T03:58:21;10.88;;;5.82;;
15806;SDS011;8005;51.368;6.140;2022-10-04T04:01:33;15.90;;;6.15;;
15806;SDS011;8005;51.368;6.140;2022-10-04T04:03:06;9.50;;;5.57;;
15806;SDS011;8005;51.368;6.140;2022-10-04T04:06:24;13.40;;;5.68;;
15806;SDS011;8005;51.368;6.140;2022-10-04T04:08:13;11.02;;;6.35;;
15806;SDS011;8005;51.368;6.140;2022-10-04T04:09:47;11.57;;;5.72;;
15806;SDS011;8005;51.368;6.140;2022-10-04T04:11:27;11.80;;;6.15;;
15806;SDS011;8005;51.368;6.140;2022-10-04T04:13:48;12.55;;;6.80;;
15806;SDS011;8005;51.368;6.140;2022-10-04T04:14:53;9.35;;;5.82;;
15806;SDS011;8005;51.368;6.140;2022-10-04T04:16:28;12.27;;;5.50;;
15806;SDS011;8005;51.368;6.140;2022-10-04T04:18:16;10.25;;;5.55;;
15806;SDS011;8005;51.368;6.140;2022-10-04T04:19:49;13.32;;;5.32;;
15806;SDS011;8005;51.368;6.140;2022-10-04T04:21:24;14.45;;;5.63;;
15806;SDS011;8005;51.368;6.140;2022-10-04T04:23:03;11.70;;;5.57;;
15806;SDS011;8005;51.368;6.140;2022-10-04T04:24:41;12.10;;;6.38;;
15806;SDS011;8005;51.368;6.140;2022-10-04T04:26:18;9.98;;;5.03;;
15806;SDS011;8005;51.368;6.140;2022-10-04T04:27:58;13.27;;;5.85;;
15806;SDS011;8005;51.368;6.140;2022-10-04T04:29:36;10.40;;;5.65;;
15806;SDS011;8005;51.368;6.140;2022-10-04T04:31:13;12.98;;;5.90;;
15806;SDS011;8005;51.368;6.140;2022-10-04T04:32:49;11.98;;;6.43;;
15806;SDS011;8005;51.368;6.140;2022-10-04T04:34:48;15.05;;;7.35;;
15806;SDS011;8005;51.368;6.140;2022-10-04T04:36:19;13.55;;;7.22;;
15806;SDS011;8005;51.368;6.140;2022-10-04T04:38:04;13.20;;;6.30;;
15806;SDS011;8005;51.368;6.140;2022-10-04T04:39:55;10.93;;;6.03;;
15806;SDS011;8005;51.368;6.140;2022-10-04T04:41:36;15.57;;;6.35;;
15806;SDS011;8005;51.368;6.140;2022-10-04T04:43:23;12.20;;;5.85;;
15806;SDS011;8005;51.368;6.140;2022-10-04T04:45:04;10.13;;;6.15;;
15806;SDS011;8005;51.368;6.140;2022-10-04T04:46:39;16.70;;;6.03;;
15806;SDS011;8005;51.368;6.140;2022-10-04T04:48:22;13.05;;;6.20;;
15806;SDS011;8005;51.368;6.140;2022-10-04T04:50:12;13.63;;;5.22;;
15806;SDS011;8005;51.368;6.140;2022-10-04T04:51:48;12.80;;;5.97;;
15806;SDS011;8005;51.368;6.140;2022-10-04T04:53:36;9.95;;;5.55;;
15806;SDS011;8005;51.368;6.140;2022-10-04T04:55:20;12.45;;;5.22;;
15806;SDS011;8005;51.368;6.140;2022-10-04T04:56:53;12.82;;;5.68;;
15806;SDS011;8005;51.368;6.140;2022-10-04T04:58:32;8.48;;;5.63;;
15806;SDS011;8005;51.368;6.140;2022-10-04T05:00:13;9.55;;;5.22;;
15806;SDS011;8005;51.368;6.140;2022-10-04T05:01:47;11.95;;;5.05;;
15806;SDS011;8005;51.368;6.140;2022-10-04T05:03:19;13.05;;;6.15;;
15806;SDS011;8005;51.368;6.140;2022-10-04T05:05:18;10.73;;;5.80;;
15806;SDS011;8005;51.368;6.140;2022-10-04T05:07:02;10.88;;;5.60;;
15806;SDS011;8005;51.368;6.140;2022-10-04T05:08:36;11.32;;;5.57;;
15806;SDS011;8005;51.368;6.140;2022-10-04T05:10:34;12.00;;;6.40;;
15806;SDS011;8005;51.368;6.140;2022-10-04T05:12:12;9.68;;;5.90;;
15806;SDS011;8005;51.368;6.140;2022-10-04T05:13:49;10.73;;;5.43;;
15806;SDS011;8005;51.368;6.140;2022-10-04T05:15:22;13.95;;;6.57;;
15806;SDS011;8005;51.368;6.140;2022-10-04T05:16:56;15.40;;;6.45;;
15806;SDS011;8005;51.368;6.140;2022-10-04T05:18:38;17.98;;;7.40;;
15806;SDS011;8005;51.368;6.140;2022-10-04T05:20:13;14.50;;;7.53;;
15806;SDS011;8005;51.368;6.140;2022-10-04T05:21:48;13.88;;;6.55;;
15806;SDS011;8005;51.368;6.140;2022-10-04T05:23:28;14.95;;;7.57;;
15806;SDS011;8005;51.368;6.140;2022-10-04T05:25:01;13.07;;;6.25;;
15806;SDS011;8005;51.368;6.140;2022-10-04T05:26:44;11.27;;;5.82;;
15806;SDS011;8005;51.368;6.140;2022-10-04T05:28:19;10.75;;;6.07;;
15806;SDS011;8005;51.368;6.140;2022-10-04T05:31:54;9.63;;;5.90;;
15806;SDS011;8005;51.368;6.140;2022-10-04T05:33:48;8.40;;;5.05;;
15806;SDS011;8005;51.368;6.140;2022-10-04T05:35:21;11.18;;;5.63;;
15806;SDS011;8005;51.368;6.140;2022-10-04T05:40:22;11.00;;;5.35;;
15806;SDS011;8005;51.368;6.140;2022-10-04T05:45:15;9.32;;;5.75;;
15806;SDS011;8005;51.368;6.140;2022-10-04T06:07:24;14.27;;;6.07;;
15806;SDS011;8005;51.368;6.140;2022-10-04T06:19:59;10.27;;;6.53;;
15806;SDS011;8005;51.368;6.140;2022-10-04T06:21:46;13.10;;;6.45;;
15806;SDS011;8005;51.368;6.140;2022-10-04T06:23:30;12.43;;;6.15;;
15806;SDS011;8005;51.368;6.140;2022-10-04T06:25:04;11.27;;;5.97;;
15806;SDS011;8005;51.368;6.140;2022-10-04T06:26:50;15.82;;;5.88;;
15806;SDS011;8005;51.368;6.140;2022-10-04T06:30:13;18.23;;;5.82;;
15806;SDS011;8005;51.368;6.140;2022-10-04T06:40:57;13.20;;;6.15;;
15806;SDS011;8005;51.368;6.140;2022-10-04T06:46:48;12.05;;;7.05;;
15806;SDS011;8005;51.368;6.140;2022-10-04T07:01:32;13.85;;;6.88;;
15806;SDS011;8005;51.368;6.140;2022-10-04T07:03:23;21.60;;;7.85;;
15806;SDS011;8005;51.368;6.140;2022-10-04T07:07:22;18.35;;;7.40;;
15806;SDS011;8005;51.368;6.140;2022-10-04T07:09:40;12.43;;;6.97;;
15806;SDS011;8005;51.368;6.140;2022-10-04T07:11:35;15.65;;;7.50;;
15806;SDS011;8005;51.368;6.140;2022-10-04T07:18:22;14.55;;;7.40;;
15806;SDS011;8005;51.368;6.140;2022-10-04T07:24:01;15.10;;;7.45;;
15806;SDS011;8005;51.368;6.140;2022-10-04T07:25:57;14.38;;;6.70;;
15806;SDS011;8005;51.368;6.140;2022-10-04T07:28:15;13.00;;;7.18;;
15806;SDS011;8005;51.368;6.140;2022-10-04T07:30:27;19.23;;;7.22;;
15806;SDS011;8005;51.368;6.140;2022-10-04T07:32:14;13.98;;;7.03;;
15806;SDS011;8005;51.368;6.140;2022-10-04T09:06:53;9.40;;;4.43;;
15806;SDS011;8005;51.368;6.140;2022-10-04T09:21:27;16.40;;;4.40;;
15806;SDS011;8005;51.368;6.140;2022-10-04T09:42:31;9.23;;;4.60;;
15806;SDS011;8005;51.368;6.140;2022-10-04T10:00:27;8.57;;;4.57;;
15806;SDS011;8005;51.368;6.140;2022-10-04T17:53:38;8.48;;;4.63;;
